sensor_id;sensor_type;location;lat;lon;timestamp;temperature;humidity
25628;DHT22;40915;50.826;4.356;2022-12-01T00:00:57;6.40;99.90
25628;DHT22;40915;50.826;4.356;2022-12-01T00:03:23;6.40;99.90
25628;DHT22;40915;50.826;4.356;2022-12-01T00:05:59;6.40;99.90
25628;DHT22;40915;50.826;4.356;2022-12-01T00:08:26;6.40;99.90
25628;DHT22;40915;50.826;4.356;2022-12-01T00:10:52;6.40;99.90
25628;DHT22;40915;50.826;4.356;2022-12-01T00:13:18;6.40;99.90
25628;DHT22;40915;50.826;4.356;2022-12-01T00:15:43;6.40;99.90
25628;DHT22;40915;50.826;4.356;2022-12-01T00:18:09;6.40;99.90
25628;DHT22;40915;50.826;4.356;2022-12-01T00:20:36;6.40;99.90
25628;DHT22;40915;50.826;4.356;2022-12-01T00:23:02;6.30;99.90
25628;DHT22;40915;50.826;4.356;2022-12-01T00:25:28;6.30;99.90
25628;DHT22;40915;50.826;4.356;2022-12-01T00:27:54;6.30;99.90
25628;DHT22;40915;50.826;4.356;2022-12-01T00:30:21;6.30;99.90
25628;DHT22;40915;50.826;4.356;2022-12-01T00:32:47;6.40;99.90
25628;DHT22;40915;50.826;4.356;2022-12-01T00:35:14;6.40;99.90
25628;DHT22;40915;50.826;4.356;2022-12-01T00:37:41;6.40;99.90
25628;DHT22;40915;50.826;4.356;2022-12-01T00:40:08;6.40;99.90
25628;DHT22;40915;50.826;4.356;2022-12-01T00:42:34;6.40;99.90
25628;DHT22;40915;50.826;4.356;2022-12-01T00:45:00;6.30;99.90
25628;DHT22;40915;50.826;4.356;2022-12-01T00:47:25;6.40;99.90
25628;DHT22;40915;50.826;4.356;2022-12-01T00:49:51;6.30;99.90
25628;DHT22;40915;50.826;4.356;2022-12-01T00:52:17;6.30;99.90
25628;DHT22;40915;50.826;4.356;2022-12-01T00:54:43;6.30;99.90
25628;DHT22;40915;50.826;4.356;2022-12-01T00:57:09;6.30;99.90
25628;DHT22;40915;50.826;4.356;2022-12-01T00:59:35;6.30;99.90
25628;DHT22;40915;50.826;4.356;2022-12-01T01:02:05;6.40;99.90
25628;DHT22;40915;50.826;4.356;2022-12-01T01:04:33;6.30;99.90
25628;DHT22;40915;50.826;4.356;2022-12-01T01:07:00;6.30;99.90
25628;DHT22;40915;50.826;4.356;2022-12-01T01:09:25;6.30;99.90
25628;DHT22;40915;50.826;4.356;2022-12-01T01:11:52;6.30;99.90
25628;DHT22;40915;50.826;4.356;2022-12-01T01:14:19;6.40;99.90
25628;DHT22;40915;50.826;4.356;2022-12-01T01:16:44;6.30;99.90
25628;DHT22;40915;50.826;4.356;2022-12-01T01:19:10;6.40;99.90
25628;DHT22;40915;50.826;4.356;2022-12-01T01:21:36;6.40;99.90
25628;DHT22;40915;50.826;4.356;2022-12-01T01:24:01;6.30;99.90
25628;DHT22;40915;50.826;4.356;2022-12-01T01:26:30;6.30;99.90
25628;DHT22;40915;50.826;4.356;2022-12-01T01:29:01;6.30;99.90
25628;DHT22;40915;50.826;4.356;2022-12-01T01:31:28;6.30;99.90
25628;DHT22;40915;50.826;4.356;2022-12-01T01:33:55;6.30;99.90
25628;DHT22;40915;50.826;4.356;2022-12-01T01:36:21;6.20;99.90
25628;DHT22;40915;50.826;4.356;2022-12-01T01:38:47;6.30;99.90
25628;DHT22;40915;50.826;4.356;2022-12-01T01:41:16;6.20;99.90
25628;DHT22;40915;50.826;4.356;2022-12-01T01:43:49;6.30;99.90
25628;DHT22;40915;50.826;4.356;2022-12-01T01:46:20;6.30;99.90
25628;DHT22;40915;50.826;4.356;2022-12-01T01:57:26;6.20;99.90
25628;DHT22;40915;50.826;4.356;2022-12-01T02:00:19;6.20;99.90
25628;DHT22;40915;50.826;4.356;2022-12-01T02:02:46;6.20;99.90
25628;DHT22;40915;50.826;4.356;2022-12-01T02:05:33;6.20;99.90
25628;DHT22;40915;50.826;4.356;2022-12-01T02:08:01;6.20;99.90
25628;DHT22;40915;50.826;4.356;2022-12-01T02:16:13;6.10;99.90
25628;DHT22;40915;50.826;4.356;2022-12-01T02:30:01;6.00;99.90
25628;DHT22;40915;50.826;4.356;2022-12-01T02:32:46;6.10;99.90
25628;DHT22;40915;50.826;4.356;2022-12-01T02:47:55;5.90;99.90
25628;DHT22;40915;50.826;4.356;2022-12-01T02:50:24;6.00;99.90
25628;DHT22;40915;50.826;4.356;2022-12-01T02:52:52;6.10;99.90
25628;DHT22;40915;50.826;4.356;2022-12-01T02:55:18;6.10;99.90
25628;DHT22;40915;50.826;4.356;2022-12-01T02:57:44;6.10;99.90
25628;DHT22;40915;50.826;4.356;2022-12-01T03:00:10;6.00;99.90
25628;DHT22;40915;50.826;4.356;2022-12-01T03:08:15;6.10;99.90
25628;DHT22;40915;50.826;4.356;2022-12-01T03:10:55;6.10;99.90
25628;DHT22;40915;50.826;4.356;2022-12-01T03:13:45;6.10;99.90
25628;DHT22;40915;50.826;4.356;2022-12-01T03:18:59;6.10;99.90
25628;DHT22;40915;50.826;4.356;2022-12-01T03:21:41;6.00;99.90
25628;DHT22;40915;50.826;4.356;2022-12-01T03:24:13;6.00;99.90
25628;DHT22;40915;50.826;4.356;2022-12-01T03:26:40;6.00;99.90
25628;DHT22;40915;50.826;4.356;2022-12-01T03:29:18;6.00;99.90
25628;DHT22;40915;50.826;4.356;2022-12-01T03:31:49;6.00;99.90
25628;DHT22;40915;50.826;4.356;2022-12-01T03:34:25;6.00;99.90
25628;DHT22;40915;50.826;4.356;2022-12-01T03:37:07;6.00;99.90
25628;DHT22;40915;50.826;4.356;2022-12-01T03:39:35;6.00;99.90
25628;DHT22;40915;50.826;4.356;2022-12-01T03:44:47;5.90;99.90
25628;DHT22;40915;50.826;4.356;2022-12-01T03:47:18;5.90;99.90
25628;DHT22;40915;50.826;4.356;2022-12-01T03:49:45;5.90;99.90
25628;DHT22;40915;50.826;4.356;2022-12-01T03:55:27;5.80;99.90
25628;DHT22;40915;50.826;4.356;2022-12-01T03:58:00;5.90;99.90
25628;DHT22;40915;50.826;4.356;2022-12-01T04:00:27;5.90;99.90
25628;DHT22;40915;50.826;4.356;2022-12-01T04:02:58;5.90;99.90
25628;DHT22;40915;50.826;4.356;2022-12-01T04:05:25;5.90;99.90
25628;DHT22;40915;50.826;4.356;2022-12-01T04:07:51;5.90;99.90
25628;DHT22;40915;50.826;4.356;2022-12-01T04:10:17;5.90;99.90
25628;DHT22;40915;50.826;4.356;2022-12-01T04:12:42;5.90;99.90
25628;DHT22;40915;50.826;4.356;2022-12-01T04:15:10;5.90;99.90
25628;DHT22;40915;50.826;4.356;2022-12-01T04:17:40;5.90;99.90
25628;DHT22;40915;50.826;4.356;2022-12-01T04:20:13;5.90;99.90
25628;DHT22;40915;50.826;4.356;2022-12-01T04:22:39;5.90;99.90
25628;DHT22;40915;50.826;4.356;2022-12-01T04:25:05;5.90;99.90
25628;DHT22;40915;50.826;4.356;2022-12-01T04:27:32;5.90;99.90
25628;DHT22;40915;50.826;4.356;2022-12-01T04:29:57;5.90;99.90
25628;DHT22;40915;50.826;4.356;2022-12-01T04:32:23;5.90;99.90
25628;DHT22;40915;50.826;4.356;2022-12-01T04:34:49;5.90;99.90
25628;DHT22;40915;50.826;4.356;2022-12-01T04:37:15;5.90;99.90
25628;DHT22;40915;50.826;4.356;2022-12-01T04:39:41;5.90;99.90
25628;DHT22;40915;50.826;4.356;2022-12-01T04:42:07;5.90;99.90
25628;DHT22;40915;50.826;4.356;2022-12-01T04:44:33;5.90;99.90
25628;DHT22;40915;50.826;4.356;2022-12-01T04:46:58;5.90;99.90
25628;DHT22;40915;50.826;4.356;2022-12-01T04:49:24;5.90;99.90
25628;DHT22;40915;50.826;4.356;2022-12-01T04:51:50;5.90;99.90
25628;DHT22;40915;50.826;4.356;2022-12-01T04:54:16;5.90;99.90
25628;DHT22;40915;50.826;4.356;2022-12-01T04:56:42;5.90;99.90
25628;DHT22;40915;50.826;4.356;2022-12-01T04:59:08;5.90;99.90
25628;DHT22;40915;50.826;4.356;2022-12-01T05:01:34;5.90;99.90
25628;DHT22;40915;50.826;4.356;2022-12-01T05:04:00;5.90;99.90
25628;DHT22;40915;50.826;4.356;2022-12-01T05:06:27;5.90;99.90
25628;DHT22;40915;50.826;4.356;2022-12-01T05:09:00;5.90;99.90
25628;DHT22;40915;50.826;4.356;2022-12-01T05:11:28;5.90;99.90
25628;DHT22;40915;50.826;4.356;2022-12-01T05:13:54;5.90;99.90
25628;DHT22;40915;50.826;4.356;2022-12-01T05:16:22;5.90;99.90
25628;DHT22;40915;50.826;4.356;2022-12-01T05:18:53;6.00;99.90
25628;DHT22;40915;50.826;4.356;2022-12-01T05:21:39;6.00;99.90
25628;DHT22;40915;50.826;4.356;2022-12-01T05:24:06;6.10;99.90
25628;DHT22;40915;50.826;4.356;2022-12-01T05:26:32;6.10;99.90
25628;DHT22;40915;50.826;4.356;2022-12-01T05:28:57;6.20;99.90
25628;DHT22;40915;50.826;4.356;2022-12-01T05:31:23;6.10;99.90
25628;DHT22;40915;50.826;4.356;2022-12-01T05:33:48;6.00;99.90
25628;DHT22;40915;50.826;4.356;2022-12-01T05:36:14;6.00;99.90
25628;DHT22;40915;50.826;4.356;2022-12-01T05:38:39;6.00;99.90
25628;DHT22;40915;50.826;4.356;2022-12-01T05:41:05;6.00;99.90
25628;DHT22;40915;50.826;4.356;2022-12-01T05:43:30;6.00;99.90
25628;DHT22;40915;50.826;4.356;2022-12-01T05:45:56;6.00;99.90
25628;DHT22;40915;50.826;4.356;2022-12-01T05:48:22;6.00;99.90
25628;DHT22;40915;50.826;4.356;2022-12-01T05:50:48;6.00;99.90
25628;DHT22;40915;50.826;4.356;2022-12-01T05:53:14;6.00;99.90
25628;DHT22;40915;50.826;4.356;2022-12-01T05:55:40;6.00;99.90
25628;DHT22;40915;50.826;4.356;2022-12-01T05:58:07;6.00;99.90
25628;DHT22;40915;50.826;4.356;2022-12-01T06:00:33;6.00;99.90
25628;DHT22;40915;50.826;4.356;2022-12-01T06:02:59;6.00;99.90
25628;DHT22;40915;50.826;4.356;2022-12-01T06:05:26;6.00;99.90
25628;DHT22;40915;50.826;4.356;2022-12-01T06:07:52;6.00;99.90
25628;DHT22;40915;50.826;4.356;2022-12-01T06:10:17;6.00;99.90
25628;DHT22;40915;50.826;4.356;2022-12-01T06:12:43;6.00;99.90
25628;DHT22;40915;50.826;4.356;2022-12-01T06:15:10;6.10;99.90
25628;DHT22;40915;50.826;4.356;2022-12-01T06:17:36;6.10;99.90
25628;DHT22;40915;50.826;4.356;2022-12-01T06:20:03;6.10;99.90
25628;DHT22;40915;50.826;4.356;2022-12-01T06:22:29;6.10;99.90
25628;DHT22;40915;50.826;4.356;2022-12-01T06:24:55;6.20;99.90
25628;DHT22;40915;50.826;4.356;2022-12-01T06:27:21;6.20;99.90
25628;DHT22;40915;50.826;4.356;2022-12-01T06:29:46;6.20;99.90
25628;DHT22;40915;50.826;4.356;2022-12-01T06:32:13;6.20;99.90
25628;DHT22;40915;50.826;4.356;2022-12-01T06:34:39;6.20;99.90
25628;DHT22;40915;50.826;4.356;2022-12-01T06:37:04;6.20;99.90
25628;DHT22;40915;50.826;4.356;2022-12-01T06:39:30;6.20;99.90
25628;DHT22;40915;50.826;4.356;2022-12-01T06:41:55;6.20;99.90
25628;DHT22;40915;50.826;4.356;2022-12-01T06:44:21;6.20;99.90
25628;DHT22;40915;50.826;4.356;2022-12-01T06:46:47;6.30;99.90
25628;DHT22;40915;50.826;4.356;2022-12-01T06:49:17;6.20;99.90
25628;DHT22;40915;50.826;4.356;2022-12-01T06:51:42;6.20;99.90
25628;DHT22;40915;50.826;4.356;2022-12-01T06:54:10;6.20;99.90
25628;DHT22;40915;50.826;4.356;2022-12-01T06:56:36;6.20;99.90
25628;DHT22;40915;50.826;4.356;2022-12-01T06:59:01;6.30;99.90
25628;DHT22;40915;50.826;4.356;2022-12-01T07:01:27;6.30;99.90
25628;DHT22;40915;50.826;4.356;2022-12-01T07:03:53;6.30;99.90
25628;DHT22;40915;50.826;4.356;2022-12-01T07:06:19;6.30;99.90
25628;DHT22;40915;50.826;4.356;2022-12-01T07:08:45;6.30;99.90
25628;DHT22;40915;50.826;4.356;2022-12-01T07:11:14;6.30;99.90
25628;DHT22;40915;50.826;4.356;2022-12-01T07:13:41;6.30;99.90
25628;DHT22;40915;50.826;4.356;2022-12-01T07:16:07;6.40;99.90
25628;DHT22;40915;50.826;4.356;2022-12-01T07:18:34;6.40;99.90
25628;DHT22;40915;50.826;4.356;2022-12-01T07:21:07;6.40;99.90
25628;DHT22;40915;50.826;4.356;2022-12-01T07:23:33;6.30;99.90
25628;DHT22;40915;50.826;4.356;2022-12-01T07:28:28;6.30;99.90
25628;DHT22;40915;50.826;4.356;2022-12-01T07:30:59;6.30;99.90
25628;DHT22;40915;50.826;4.356;2022-12-01T07:33:25;6.30;99.90
25628;DHT22;40915;50.826;4.356;2022-12-01T07:35:52;6.30;99.90
25628;DHT22;40915;50.826;4.356;2022-12-01T07:38:17;6.30;99.90
25628;DHT22;40915;50.826;4.356;2022-12-01T07:40:43;6.30;99.90
25628;DHT22;40915;50.826;4.356;2022-12-01T07:43:09;6.30;99.90
25628;DHT22;40915;50.826;4.356;2022-12-01T07:45:34;6.30;99.90
25628;DHT22;40915;50.826;4.356;2022-12-01T07:48:00;6.40;99.90
25628;DHT22;40915;50.826;4.356;2022-12-01T07:50:25;6.40;99.90
25628;DHT22;40915;50.826;4.356;2022-12-01T07:52:51;6.40;99.90
25628;DHT22;40915;50.826;4.356;2022-12-01T07:55:16;6.40;99.90
25628;DHT22;40915;50.826;4.356;2022-12-01T07:57:42;6.40;99.90
25628;DHT22;40915;50.826;4.356;2022-12-01T08:00:08;6.40;99.90
25628;DHT22;40915;50.826;4.356;2022-12-01T08:02:33;6.30;99.90
25628;DHT22;40915;50.826;4.356;2022-12-01T08:04:59;6.30;99.90
25628;DHT22;40915;50.826;4.356;2022-12-01T08:07:25;6.30;99.90
25628;DHT22;40915;50.826;4.356;2022-12-01T08:09:50;6.30;99.90
25628;DHT22;40915;50.826;4.356;2022-12-01T08:12:16;6.30;99.90
25628;DHT22;40915;50.826;4.356;2022-12-01T08:14:41;6.30;99.90
25628;DHT22;40915;50.826;4.356;2022-12-01T08:17:07;6.30;99.90
25628;DHT22;40915;50.826;4.356;2022-12-01T08:19:32;6.30;99.90
25628;DHT22;40915;50.826;4.356;2022-12-01T08:21:58;6.30;99.90
25628;DHT22;40915;50.826;4.356;2022-12-01T08:24:24;6.30;99.90
25628;DHT22;40915;50.826;4.356;2022-12-01T08:26:50;6.30;99.90
25628;DHT22;40915;50.826;4.356;2022-12-01T08:29:15;6.30;99.90
25628;DHT22;40915;50.826;4.356;2022-12-01T08:31:41;6.30;99.90
25628;DHT22;40915;50.826;4.356;2022-12-01T08:34:08;6.30;99.90
25628;DHT22;40915;50.826;4.356;2022-12-01T08:36:35;6.40;99.90
25628;DHT22;40915;50.826;4.356;2022-12-01T08:39:01;6.40;99.90
25628;DHT22;40915;50.826;4.356;2022-12-01T08:41:27;6.40;99.90
25628;DHT22;40915;50.826;4.356;2022-12-01T08:43:53;6.40;99.90
25628;DHT22;40915;50.826;4.356;2022-12-01T08:46:20;6.50;99.90
25628;DHT22;40915;50.826;4.356;2022-12-01T08:48:45;6.50;99.90
25628;DHT22;40915;50.826;4.356;2022-12-01T08:51:16;6.50;99.90
25628;DHT22;40915;50.826;4.356;2022-12-01T08:53:45;6.50;99.90
25628;DHT22;40915;50.826;4.356;2022-12-01T08:56:14;6.60;99.90
25628;DHT22;40915;50.826;4.356;2022-12-01T08:58:39;6.60;99.90
25628;DHT22;40915;50.826;4.356;2022-12-01T09:01:08;6.60;99.90
25628;DHT22;40915;50.826;4.356;2022-12-01T09:03:35;6.50;99.90
25628;DHT22;40915;50.826;4.356;2022-12-01T09:06:06;6.50;99.90
25628;DHT22;40915;50.826;4.356;2022-12-01T09:08:33;6.50;99.90
25628;DHT22;40915;50.826;4.356;2022-12-01T09:11:05;6.50;99.90
25628;DHT22;40915;50.826;4.356;2022-12-01T09:13:33;6.50;99.90
25628;DHT22;40915;50.826;4.356;2022-12-01T09:16:03;6.60;99.90
25628;DHT22;40915;50.826;4.356;2022-12-01T09:18:29;6.60;99.90
25628;DHT22;40915;50.826;4.356;2022-12-01T09:20:55;6.60;99.90
25628;DHT22;40915;50.826;4.356;2022-12-01T09:23:22;6.70;99.90
25628;DHT22;40915;50.826;4.356;2022-12-01T09:25:49;6.70;99.90
25628;DHT22;40915;50.826;4.356;2022-12-01T09:28:15;6.70;99.90
25628;DHT22;40915;50.826;4.356;2022-12-01T09:30:42;6.80;99.90
25628;DHT22;40915;50.826;4.356;2022-12-01T09:33:08;6.70;99.90
25628;DHT22;40915;50.826;4.356;2022-12-01T09:35:34;6.70;99.90
25628;DHT22;40915;50.826;4.356;2022-12-01T09:37:59;6.80;99.90
25628;DHT22;40915;50.826;4.356;2022-12-01T09:40:33;6.80;99.90
25628;DHT22;40915;50.826;4.356;2022-12-01T09:43:00;6.70;99.90
25628;DHT22;40915;50.826;4.356;2022-12-01T09:45:30;6.70;99.90
25628;DHT22;40915;50.826;4.356;2022-12-01T09:47:59;6.70;99.90
25628;DHT22;40915;50.826;4.356;2022-12-01T09:50:26;6.70;99.90
25628;DHT22;40915;50.826;4.356;2022-12-01T09:52:59;6.70;99.90
25628;DHT22;40915;50.826;4.356;2022-12-01T09:55:28;6.70;99.90
25628;DHT22;40915;50.826;4.356;2022-12-01T09:57:56;6.80;99.90
25628;DHT22;40915;50.826;4.356;2022-12-01T10:00:25;6.80;99.90
25628;DHT22;40915;50.826;4.356;2022-12-01T10:05:44;6.80;99.90
25628;DHT22;40915;50.826;4.356;2022-12-01T10:08:16;6.80;99.90
25628;DHT22;40915;50.826;4.356;2022-12-01T10:10:46;6.80;99.90
25628;DHT22;40915;50.826;4.356;2022-12-01T10:13:20;6.80;99.90
25628;DHT22;40915;50.826;4.356;2022-12-01T10:18:38;6.90;99.90
25628;DHT22;40915;50.826;4.356;2022-12-01T10:34:41;7.10;99.90
25628;DHT22;40915;50.826;4.356;2022-12-01T10:37:25;7.10;99.90
25628;DHT22;40915;50.826;4.356;2022-12-01T10:39:54;7.10;99.90
25628;DHT22;40915;50.826;4.356;2022-12-01T10:42:35;7.10;99.90
25628;DHT22;40915;50.826;4.356;2022-12-01T10:45:05;7.20;99.90
25628;DHT22;40915;50.826;4.356;2022-12-01T10:47:37;7.20;99.90
25628;DHT22;40915;50.826;4.356;2022-12-01T10:50:04;7.30;99.90
25628;DHT22;40915;50.826;4.356;2022-12-01T10:52:40;7.30;99.90
25628;DHT22;40915;50.826;4.356;2022-12-01T10:55:27;7.20;99.90
25628;DHT22;40915;50.826;4.356;2022-12-01T10:57:55;7.20;99.90
25628;DHT22;40915;50.826;4.356;2022-12-01T11:00:26;7.20;99.90
25628;DHT22;40915;50.826;4.356;2022-12-01T11:02:53;7.30;99.90
25628;DHT22;40915;50.826;4.356;2022-12-01T11:05:24;7.40;99.90
25628;DHT22;40915;50.826;4.356;2022-12-01T11:07:51;7.30;99.90
25628;DHT22;40915;50.826;4.356;2022-12-01T11:10:20;7.40;99.90
25628;DHT22;40915;50.826;4.356;2022-12-01T11:13:16;7.50;99.90
25628;DHT22;40915;50.826;4.356;2022-12-01T11:15:57;7.50;99.90
25628;DHT22;40915;50.826;4.356;2022-12-01T11:18:28;7.60;99.90
25628;DHT22;40915;50.826;4.356;2022-12-01T11:21:12;7.60;99.90
25628;DHT22;40915;50.826;4.356;2022-12-01T11:26:10;7.60;99.90
25628;DHT22;40915;50.826;4.356;2022-12-01T11:28:49;7.60;99.90
25628;DHT22;40915;50.826;4.356;2022-12-01T11:31:16;7.60;99.90
25628;DHT22;40915;50.826;4.356;2022-12-01T11:33:51;7.60;99.90
25628;DHT22;40915;50.826;4.356;2022-12-01T11:36:38;7.70;99.90
25628;DHT22;40915;50.826;4.356;2022-12-01T11:39:06;7.70;99.90
25628;DHT22;40915;50.826;4.356;2022-12-01T11:41:42;7.70;99.90
25628;DHT22;40915;50.826;4.356;2022-12-01T11:44:17;7.80;99.90
25628;DHT22;40915;50.826;4.356;2022-12-01T11:46:44;7.90;99.90
25628;DHT22;40915;50.826;4.356;2022-12-01T11:49:18;7.90;99.90
25628;DHT22;40915;50.826;4.356;2022-12-01T11:51:44;7.90;99.90
25628;DHT22;40915;50.826;4.356;2022-12-01T11:54:22;7.90;99.90
25628;DHT22;40915;50.826;4.356;2022-12-01T11:56:50;7.90;99.90
25628;DHT22;40915;50.826;4.356;2022-12-01T11:59:25;7.90;99.90
25628;DHT22;40915;50.826;4.356;2022-12-01T12:18:24;8.00;99.90
25628;DHT22;40915;50.826;4.356;2022-12-01T12:21:07;7.90;99.90
25628;DHT22;40915;50.826;4.356;2022-12-01T12:24:47;7.90;99.90
25628;DHT22;40915;50.826;4.356;2022-12-01T12:30:20;7.80;99.90
25628;DHT22;40915;50.826;4.356;2022-12-01T12:46:09;7.70;99.90
25628;DHT22;40915;50.826;4.356;2022-12-01T12:51:27;7.70;99.90
25628;DHT22;40915;50.826;4.356;2022-12-01T12:54:48;7.70;99.90
25628;DHT22;40915;50.826;4.356;2022-12-01T12:57:01;7.60;99.90
25628;DHT22;40915;50.826;4.356;2022-12-01T12:59:40;7.60;99.90
25628;DHT22;40915;50.826;4.356;2022-12-01T13:02:25;7.60;99.90
25628;DHT22;40915;50.826;4.356;2022-12-01T13:05:16;7.60;99.90
25628;DHT22;40915;50.826;4.356;2022-12-01T13:07:52;7.60;99.90
25628;DHT22;40915;50.826;4.356;2022-12-01T13:13:34;7.60;99.90
25628;DHT22;40915;50.826;4.356;2022-12-01T13:16:05;7.60;99.90
25628;DHT22;40915;50.826;4.356;2022-12-01T13:18:54;7.60;99.90
25628;DHT22;40915;50.826;4.356;2022-12-01T13:21:21;7.60;99.90
25628;DHT22;40915;50.826;4.356;2022-12-01T13:23:49;7.60;99.90
25628;DHT22;40915;50.826;4.356;2022-12-01T13:26:17;7.60;99.90
25628;DHT22;40915;50.826;4.356;2022-12-01T13:28:49;7.50;99.90
25628;DHT22;40915;50.826;4.356;2022-12-01T13:31:17;7.60;99.90
25628;DHT22;40915;50.826;4.356;2022-12-01T13:34:04;7.50;99.90
25628;DHT22;40915;50.826;4.356;2022-12-01T13:36:31;7.50;99.90
25628;DHT22;40915;50.826;4.356;2022-12-01T13:39:12;7.50;99.90
25628;DHT22;40915;50.826;4.356;2022-12-01T13:41:43;7.60;99.90
25628;DHT22;40915;50.826;4.356;2022-12-01T13:44:21;7.60;99.90
25628;DHT22;40915;50.826;4.356;2022-12-01T13:46:55;7.60;99.90
25628;DHT22;40915;50.826;4.356;2022-12-01T13:49:46;7.60;99.90
25628;DHT22;40915;50.826;4.356;2022-12-01T13:57:34;7.60;99.90
25628;DHT22;40915;50.826;4.356;2022-12-01T14:00:19;7.70;99.90
25628;DHT22;40915;50.826;4.356;2022-12-01T14:05:50;7.60;99.90
25628;DHT22;40915;50.826;4.356;2022-12-01T14:08:22;7.50;99.90
25628;DHT22;40915;50.826;4.356;2022-12-01T14:13:21;7.40;99.90
25628;DHT22;40915;50.826;4.356;2022-12-01T14:15:59;7.40;99.90
25628;DHT22;40915;50.826;4.356;2022-12-01T14:18:32;7.40;99.90
25628;DHT22;40915;50.826;4.356;2022-12-01T14:20:59;7.40;99.90
25628;DHT22;40915;50.826;4.356;2022-12-01T14:23:33;7.40;99.90
25628;DHT22;40915;50.826;4.356;2022-12-01T14:26:08;7.40;99.90
25628;DHT22;40915;50.826;4.356;2022-12-01T14:34:00;7.30;99.90
25628;DHT22;40915;50.826;4.356;2022-12-01T14:36:40;7.40;99.90
25628;DHT22;40915;50.826;4.356;2022-12-01T14:39:26;7.40;99.90
25628;DHT22;40915;50.826;4.356;2022-12-01T14:42:00;7.40;99.90
25628;DHT22;40915;50.826;4.356;2022-12-01T14:49:49;7.40;99.90
25628;DHT22;40915;50.826;4.356;2022-12-01T14:54:52;7.40;99.90
25628;DHT22;40915;50.826;4.356;2022-12-01T14:57:23;7.40;99.90
25628;DHT22;40915;50.826;4.356;2022-12-01T15:00:07;7.40;99.90
25628;DHT22;40915;50.826;4.356;2022-12-01T15:02:41;7.40;99.90
25628;DHT22;40915;50.826;4.356;2022-12-01T15:05:42;7.40;99.90
25628;DHT22;40915;50.826;4.356;2022-12-01T15:08:19;7.40;99.90
25628;DHT22;40915;50.826;4.356;2022-12-01T15:10:51;7.40;99.90
25628;DHT22;40915;50.826;4.356;2022-12-01T15:13:32;7.40;99.90
25628;DHT22;40915;50.826;4.356;2022-12-01T15:16:12;7.40;99.90
25628;DHT22;40915;50.826;4.356;2022-12-01T15:18:38;7.40;99.90
25628;DHT22;40915;50.826;4.356;2022-12-01T15:21:14;7.40;99.90
25628;DHT22;40915;50.826;4.356;2022-12-01T15:23:56;7.40;99.90
25628;DHT22;40915;50.826;4.356;2022-12-01T15:26:24;7.30;99.90
25628;DHT22;40915;50.826;4.356;2022-12-01T15:31:52;7.40;99.90
25628;DHT22;40915;50.826;4.356;2022-12-01T15:36:52;7.40;99.90
25628;DHT22;40915;50.826;4.356;2022-12-01T15:39:24;7.30;99.90
25628;DHT22;40915;50.826;4.356;2022-12-01T15:41:50;7.30;99.90
25628;DHT22;40915;50.826;4.356;2022-12-01T15:44:33;7.30;99.90
25628;DHT22;40915;50.826;4.356;2022-12-01T15:47:35;7.30;99.90
25628;DHT22;40915;50.826;4.356;2022-12-01T15:53:26;7.30;99.90
25628;DHT22;40915;50.826;4.356;2022-12-01T15:55:55;7.30;99.90
25628;DHT22;40915;50.826;4.356;2022-12-01T15:58:25;7.30;99.90
25628;DHT22;40915;50.826;4.356;2022-12-01T16:03:26;7.30;99.90
25628;DHT22;40915;50.826;4.356;2022-12-01T16:05:52;7.30;99.90
25628;DHT22;40915;50.826;4.356;2022-12-01T16:08:28;7.20;99.90
25628;DHT22;40915;50.826;4.356;2022-12-01T16:11:16;7.30;99.90
25628;DHT22;40915;50.826;4.356;2022-12-01T16:16:35;7.20;99.90
25628;DHT22;40915;50.826;4.356;2022-12-01T16:19:18;7.20;99.90
25628;DHT22;40915;50.826;4.356;2022-12-01T16:21:59;7.10;99.90
25628;DHT22;40915;50.826;4.356;2022-12-01T16:24:30;7.10;99.90
25628;DHT22;40915;50.826;4.356;2022-12-01T16:27:03;7.10;99.90
25628;DHT22;40915;50.826;4.356;2022-12-01T16:29:41;7.20;99.90
25628;DHT22;40915;50.826;4.356;2022-12-01T16:32:15;7.10;99.90
25628;DHT22;40915;50.826;4.356;2022-12-01T16:34:42;7.10;99.90
25628;DHT22;40915;50.826;4.356;2022-12-01T16:37:10;7.10;99.90
25628;DHT22;40915;50.826;4.356;2022-12-01T16:39:37;7.10;99.90
25628;DHT22;40915;50.826;4.356;2022-12-01T16:42:02;7.10;99.90
25628;DHT22;40915;50.826;4.356;2022-12-01T16:44:28;7.10;99.90
25628;DHT22;40915;50.826;4.356;2022-12-01T16:46:54;7.10;99.90
25628;DHT22;40915;50.826;4.356;2022-12-01T16:49:20;7.10;99.90
25628;DHT22;40915;50.826;4.356;2022-12-01T16:51:45;7.10;99.90
25628;DHT22;40915;50.826;4.356;2022-12-01T16:54:11;7.10;99.90
25628;DHT22;40915;50.826;4.356;2022-12-01T16:56:38;7.10;99.90
25628;DHT22;40915;50.826;4.356;2022-12-01T16:59:03;7.10;99.90
25628;DHT22;40915;50.826;4.356;2022-12-01T17:01:29;7.20;99.90
25628;DHT22;40915;50.826;4.356;2022-12-01T17:03:55;7.10;99.90
25628;DHT22;40915;50.826;4.356;2022-12-01T17:06:21;7.10;99.90
25628;DHT22;40915;50.826;4.356;2022-12-01T17:08:47;7.10;99.90
25628;DHT22;40915;50.826;4.356;2022-12-01T17:11:13;7.00;99.90
25628;DHT22;40915;50.826;4.356;2022-12-01T17:13:39;7.00;99.90
25628;DHT22;40915;50.826;4.356;2022-12-01T17:16:07;7.00;99.90
25628;DHT22;40915;50.826;4.356;2022-12-01T17:18:35;7.00;99.90
25628;DHT22;40915;50.826;4.356;2022-12-01T17:21:03;7.00;99.90
25628;DHT22;40915;50.826;4.356;2022-12-01T17:23:30;6.90;99.90
25628;DHT22;40915;50.826;4.356;2022-12-01T17:25:57;6.90;99.90
25628;DHT22;40915;50.826;4.356;2022-12-01T17:28:23;6.90;99.90
25628;DHT22;40915;50.826;4.356;2022-12-01T17:30:48;7.00;99.90
25628;DHT22;40915;50.826;4.356;2022-12-01T17:33:14;7.00;99.90
25628;DHT22;40915;50.826;4.356;2022-12-01T17:35:39;6.90;99.90
25628;DHT22;40915;50.826;4.356;2022-12-01T17:38:06;6.90;99.90
25628;DHT22;40915;50.826;4.356;2022-12-01T17:40:32;6.90;99.90
25628;DHT22;40915;50.826;4.356;2022-12-01T17:42:58;6.90;99.90
25628;DHT22;40915;50.826;4.356;2022-12-01T17:45:23;6.90;99.90
25628;DHT22;40915;50.826;4.356;2022-12-01T17:47:49;6.90;99.90
25628;DHT22;40915;50.826;4.356;2022-12-01T17:50:15;6.90;99.90
25628;DHT22;40915;50.826;4.356;2022-12-01T17:52:41;6.90;99.90
25628;DHT22;40915;50.826;4.356;2022-12-01T17:55:07;6.90;99.90
25628;DHT22;40915;50.826;4.356;2022-12-01T17:57:33;6.90;99.90
25628;DHT22;40915;50.826;4.356;2022-12-01T17:59:58;6.90;99.90
25628;DHT22;40915;50.826;4.356;2022-12-01T18:02:26;6.90;99.90
25628;DHT22;40915;50.826;4.356;2022-12-01T18:04:51;6.90;99.90
25628;DHT22;40915;50.826;4.356;2022-12-01T18:07:17;6.90;99.90
25628;DHT22;40915;50.826;4.356;2022-12-01T18:09:43;6.90;99.90
25628;DHT22;40915;50.826;4.356;2022-12-01T18:12:09;6.90;99.90
25628;DHT22;40915;50.826;4.356;2022-12-01T18:14:34;6.90;99.90
25628;DHT22;40915;50.826;4.356;2022-12-01T18:17:02;6.80;99.90
25628;DHT22;40915;50.826;4.356;2022-12-01T18:19:27;6.90;99.90
25628;DHT22;40915;50.826;4.356;2022-12-01T18:21:53;6.90;99.90
25628;DHT22;40915;50.826;4.356;2022-12-01T18:24:18;6.90;99.90
25628;DHT22;40915;50.826;4.356;2022-12-01T18:26:44;6.90;99.90
25628;DHT22;40915;50.826;4.356;2022-12-01T18:29:13;6.80;99.90
25628;DHT22;40915;50.826;4.356;2022-12-01T18:31:40;6.80;99.90
25628;DHT22;40915;50.826;4.356;2022-12-01T18:34:07;6.80;99.90